Terminal Aerodrome Forecast
Issued by NWS

Home | Current Version | Previous Version | Graphics & Text | Print | Product List | Glossary On
Versions: 1 2 3 4 5 6 7 8 9 10 11 12 13 14 15 16 17 18 19 20
000
FTUS43 KGRB 270520
TAFMTW
TAF
KMTW 270520Z 2706/2806 26012KT P6SM BKN080
     FM271500 26016G24KT P6SM BKN040
     FM271900 28014G22KT P6SM -SHRA OVC025
     FM272200 28012G20KT 5SM -SHRA BR OVC015
     FM280200 29009KT 5SM -SHRA BR BKN006 OVC012=

USA.gov is the U.S. government's official web portal to all federal, state and local government web resources and services.